Time;durP1;ratioP1;P1;durP2;ratioP2;P2;SDS_P1;SDS_P2;PMS_P1;PMS_P2;Temp;Humidity;BMP_temperature;BMP_pressure;BME280_temperature;BME280_humidity;BME280_pressure;Samples;Min_cycle;Max_cycle;Signal;HPM_P1;HPM_P2
2023/05/17 00:00:00;;;;;;;2.30;1.17;;;;;;;10.73;62.79;97002.72;5034220;28;20573;-78
2023/05/17 00:02:28;;;;;;;4.38;1.35;;;;;;;10.67;60.85;97001.63;5034146;28;20123;-79
2023/05/17 00:04:57;;;;;;;4.55;1.30;;;;;;;10.62;60.11;96998.69;5033376;28;20535;-79
2023/05/17 00:07:24;;;;;;;6.43;1.70;;;;;;;10.59;59.50;96999.06;5033867;28;20559;-79
2023/05/17 00:09:52;;;;;;;5.75;1.17;;;;;;;10.55;58.51;97004.78;5043865;28;20089;-79
2023/05/17 00:12:20;;;;;;;2.60;1.13;;;;;;;10.50;58.32;97002.69;5053544;28;20489;-79
2023/05/17 00:14:47;;;;;;;2.78;1.10;;;;;;;10.45;58.03;97003.22;5051505;28;20489;-79
2023/05/17 00:17:15;;;;;;;4.68;1.40;;;;;;;10.44;60.04;97008.59;5061880;28;20041;-79
2023/05/17 00:19:43;;;;;;;2.20;1.27;;;;;;;10.47;64.04;97009.06;5070890;28;20044;-79
2023/05/17 00:22:12;;;;;;;3.53;1.67;;;;;;;10.56;67.04;97006.41;5062052;28;20088;-79
2023/05/17 00:24:39;;;;;;;5.43;2.08;;;;;;;10.60;67.28;97002.47;5052400;28;20083;-79
2023/05/17 00:27:07;;;;;;;6.97;1.67;;;;;;;10.62;68.36;97011.75;5051990;28;20049;-79
2023/05/17 00:29:35;;;;;;;2.58;1.30;;;;;;;10.62;68.35;97006.53;5052832;28;20053;-79
2023/05/17 00:32:02;;;;;;;2.95;1.52;;;;;;;10.62;69.80;97003.91;5053200;28;20084;-79
2023/05/17 00:34:30;;;;;;;2.63;1.42;;;;;;;10.64;70.74;97004.56;5052875;28;20048;-79
2023/05/17 00:36:58;;;;;;;4.72;1.77;;;;;;;10.67;72.21;97011.22;5053445;28;20049;-79
2023/05/17 00:39:27;;;;;;;3.30;1.30;;;;;;;10.68;72.64;97018.06;5053415;28;20048;-79
2023/05/17 00:41:54;;;;;;;4.05;1.83;;;;;;;10.67;72.61;97017.28;5053397;28;20397;-79
2023/05/17 00:44:22;;;;;;;2.22;1.15;;;;;;;10.64;71.92;97011.56;5052964;28;20049;-79
2023/05/17 00:46:50;;;;;;;2.53;1.42;;;;;;;10.63;73.51;97020.41;5053042;28;20053;-79
2023/05/17 00:49:18;;;;;;;3.10;1.23;;;;;;;10.63;73.83;97010.78;5053126;28;20087;-79
2023/05/17 00:51:46;;;;;;;2.90;1.30;;;;;;;10.62;74.29;97010.94;5052330;28;20594;-79
2023/05/17 00:54:14;;;;;;;3.38;1.17;;;;;;;10.60;74.59;97016.31;5052799;28;20482;-79
2023/05/17 00:56:44;;;;;;;1.73;1.20;;;;;;;10.50;67.83;97013.13;5046844;28;20045;-79
2023/05/17 00:59:13;;;;;;;5.50;1.52;;;;;;;10.39;68.91;97013.50;5032890;28;20088;-79
2023/05/17 01:01:42;;;;;;;2.05;0.98;;;;;;;10.38;71.90;97017.88;5032821;28;20056;-78
2023/05/17 01:04:10;;;;;;;1.08;0.85;;;;;;;10.39;72.21;97021.34;5031789;28;20049;-79
2023/05/17 01:06:38;;;;;;;4.10;1.60;;;;;;;10.31;68.82;97022.97;5031671;28;20049;-79
2023/05/17 01:09:06;;;;;;;2.42;1.30;;;;;;;10.26;70.32;97024.44;5032006;28;20328;-79
2023/05/17 01:11:42;;;;;;;4.70;1.85;;;;;;;10.20;66.28;97023.31;5031895;28;20120;-79
2023/05/17 01:14:38;;;;;;;4.07;1.58;;;;;;;10.22;73.48;97031.78;5031888;28;20083;-79
2023/05/17 01:17:12;;;;;;;3.42;1.90;;;;;;;10.21;69.50;97032.78;5094979;22;20729;-81
2023/05/17 01:19:57;;;;;;;3.35;1.70;;;;;;;10.23;74.79;97033.44;5097259;28;20134;-80
2023/05/17 01:22:39;;;;;;;1.95;1.10;;;;;;;10.20;73.20;97038.16;5097181;28;20048;-81
2023/05/17 01:25:26;;;;;;;3.42;1.30;;;;;;;10.11;65.53;97043.38;5097574;28;20125;-81
2023/05/17 01:28:00;;;;;;;2.20;1.25;;;;;;;10.07;69.00;97046.50;5097496;28;20051;-80
2023/05/17 01:30:29;;;;;;;2.90;1.58;;;;;;;10.08;70.84;97056.75;5096121;28;20534;-80
2023/05/17 01:32:58;;;;;;;1.85;1.40;;;;;;;10.13;72.97;97051.03;5097509;28;20354;-81
2023/05/17 01:35:26;;;;;;;4.07;1.65;;;;;;;10.18;74.41;97059.16;5098066;28;20056;-80
2023/05/17 01:37:55;;;;;;;4.13;1.13;;;;;;;10.20;72.84;97056.41;5095824;28;20089;-81
2023/05/17 01:40:23;;;;;;;3.03;1.40;;;;;;;10.21;74.10;97061.47;5095906;28;20097;-80
2023/05/17 01:42:57;;;;;;;1.30;1.20;;;;;;;10.22;75.76;97063.06;5094553;28;20078;-80
2023/05/17 01:45:30;;;;;;;2.88;1.40;;;;;;;10.17;73.44;97062.78;5097979;28;20056;-81
2023/05/17 01:48:03;;;;;;;;;;;;;;;10.13;73.85;97066.69;5096032;28;20420;-79
2023/05/17 01:50:33;;;;;;;4.63;1.38;;;;;;;10.10;70.74;97072.22;5095749;28;19934;-80
2023/05/17 01:53:07;;;;;;;3.92;1.30;;;;;;;10.04;71.11;97072.91;5095237;28;20491;-80
2023/05/17 01:55:42;;;;;;;6.32;1.65;;;;;;;10.05;75.37;97074.53;5094862;28;20050;-80
2023/05/17 01:58:13;;;;;;;2.97;1.20;;;;;;;10.08;76.04;97076.81;5095260;28;20044;-80
2023/05/17 02:00:43;;;;;;;2.65;1.30;;;;;;;10.10;75.54;97069.59;5095484;28;20048;-80
2023/05/17 02:03:13;;;;;;;3.20;1.40;;;;;;;10.12;76.35;97072.88;5097042;28;20101;-81
2023/05/17 02:05:40;;;;;;;7.75;2.05;;;;;;;10.08;72.67;97074.22;5099082;28;20059;-79
2023/05/17 02:08:08;;;;;;;3.33;1.30;;;;;;;10.07;75.15;97073.38;5099334;28;20044;-81
2023/05/17 02:10:36;;;;;;;1.67;1.20;;;;;;;10.10;75.36;97074.81;5099402;28;20044;-81
2023/05/17 02:13:04;;;;;;;2.92;1.33;;;;;;;10.10;76.08;97077.44;5099175;28;20062;-81
2023/05/17 02:15:33;;;;;;;3.42;1.23;;;;;;;10.00;69.92;97071.59;5098671;28;20474;-80
2023/05/17 02:18:01;;;;;;;2.08;1.17;;;;;;;9.96;73.57;97071.13;5098449;28;20465;-81
2023/05/17 02:20:28;;;;;;;3.83;1.98;;;;;;;10.00;75.82;97071.59;5098947;28;20048;-80
2023/05/17 02:22:56;;;;;;;4.03;2.03;;;;;;;10.03;76.30;97072.06;5098116;28;20052;-81
2023/05/17 02:25:23;;;;;;;5.10;1.60;;;;;;;9.98;71.69;97074.38;5098474;28;20416;-81
2023/05/17 02:27:51;;;;;;;2.90;1.50;;;;;;;9.93;72.97;97070.63;5099175;28;20115;-81
2023/05/17 02:30:21;;;;;;;6.88;1.35;;;;;;;9.94;75.07;97078.28;5098187;28;20047;-80
2023/05/17 02:32:51;;;;;;;1.38;0.98;;;;;;;9.88;73.46;97079.78;5098686;28;20571;-80
2023/05/17 02:35:19;;;;;;;2.70;1.27;;;;;;;9.87;75.43;97078.13;5098346;28;20503;-80
2023/05/17 02:37:47;;;;;;;5.15;1.27;;;;;;;9.88;76.46;97076.34;5098492;28;20048;-81
2023/05/17 02:40:14;;;;;;;3.10;1.33;;;;;;;9.88;77.24;97085.00;5098810;28;20079;-80
2023/05/17 02:42:42;;;;;;;3.45;1.13;;;;;;;9.86;77.34;97089.56;5098840;28;20098;-81
2023/05/17 02:45:10;;;;;;;2.22;1.25;;;;;;;9.84;77.46;97086.28;5099815;28;20048;-80
2023/05/17 02:47:38;;;;;;;5.65;1.20;;;;;;;9.82;77.53;97082.22;5098364;28;20066;-80
2023/05/17 02:50:08;;;;;;;2.35;1.05;;;;;;;9.81;78.00;97088.41;5099062;28;20060;-81
2023/05/17 02:52:36;;;;;;;3.65;1.48;;;;;;;9.73;75.29;97085.81;5098379;28;20515;-81
2023/05/17 02:55:04;;;;;;;3.08;1.40;;;;;;;9.67;77.06;97087.28;5097886;28;20079;-80
2023/05/17 02:57:31;;;;;;;2.70;1.00;;;;;;;9.66;76.00;97085.66;5097667;28;20097;-81
2023/05/17 02:59:59;;;;;;;3.65;1.42;;;;;;;9.65;76.81;97089.25;5096941;28;20070;-81
2023/05/17 03:02:27;;;;;;;2.60;1.40;;;;;;;9.65;77.53;97086.63;5097287;28;20109;-80
2023/05/17 03:04:55;;;;;;;2.65;1.48;;;;;;;9.64;78.11;97090.19;5097995;28;20055;-80
2023/05/17 03:07:24;;;;;;;2.08;1.60;;;;;;;9.63;78.92;97091.19;5099028;28;20509;-81
2023/05/17 03:09:51;;;;;;;2.92;1.50;;;;;;;9.62;78.64;97098.19;5098735;28;20105;-80
2023/05/17 03:12:19;;;;;;;3.22;1.45;;;;;;;9.61;78.27;97098.34;5098594;28;20108;-79
2023/05/17 03:14:46;;;;;;;2.55;1.70;;;;;;;9.56;77.95;97098.84;5097576;28;20127;-80
2023/05/17 03:17:14;;;;;;;6.25;1.15;;;;;;;9.51;75.41;97108.09;5098243;28;20044;-81
2023/05/17 03:19:42;;;;;;;1.95;1.10;;;;;;;9.43;75.81;97112.34;5097988;28;20082;-81
2023/05/17 03:22:10;;;;;;;6.32;2.20;;;;;;;9.36;72.87;97110.53;5097509;28;20079;-81
2023/05/17 03:24:39;;;;;;;7.15;1.58;;;;;;;9.26;73.81;97111.50;5097364;28;20089;-81
2023/05/17 03:27:06;;;;;;;5.53;1.58;;;;;;;9.27;76.02;97107.09;5098179;28;20385;-80
2023/05/17 03:29:34;;;;;;;5.93;1.33;;;;;;;9.27;75.54;97114.91;5097826;28;20055;-81
2023/05/17 03:32:02;;;;;;;2.78;1.85;;;;;;;9.25;76.06;97115.09;5097820;28;20109;-81
2023/05/17 03:34:29;;;;;;;1.88;1.20;;;;;;;9.26;77.19;97114.09;5098827;28;20055;-79
2023/05/17 03:36:57;;;;;;;3.30;1.52;;;;;;;9.23;75.83;97121.44;5118782;28;20055;-79
2023/05/17 03:39:24;;;;;;;3.13;1.42;;;;;;;9.23;77.59;97122.25;5118865;28;20040;-79
2023/05/17 03:41:53;;;;;;;4.28;2.03;;;;;;;9.22;78.45;97125.00;5103760;28;20120;-81
2023/05/17 03:44:21;;;;;;;2.90;1.25;;;;;;;9.22;79.04;97125.81;5099446;28;20054;-80
2023/05/17 03:46:49;;;;;;;1.65;1.38;;;;;;;9.20;77.69;97126.94;5097247;28;20101;-81
2023/05/17 03:49:16;;;;;;;1.73;1.13;;;;;;;9.16;76.11;97126.47;5096899;28;20047;-81
2023/05/17 03:51:44;;;;;;;5.32;1.40;;;;;;;9.10;73.32;97126.31;5096408;28;20040;-80
2023/05/17 03:54:12;;;;;;;9.27;1.58;;;;;;;8.98;69.99;97118.78;5096423;28;20099;-80
2023/05/17 03:56:42;;;;;;;2.88;1.30;;;;;;;8.84;68.64;97122.00;5096438;28;20080;-80
2023/05/17 03:59:11;;;;;;;2.00;1.50;;;;;;;8.68;67.19;97127.13;5095961;28;20093;-81
2023/05/17 04:01:38;;;;;;;3.28;1.48;;;;;;;8.61;69.42;97127.75;5095557;28;20064;-80
2023/05/17 04:04:06;;;;;;;2.88;1.50;;;;;;;8.60;69.60;97131.31;5095625;28;20419;-80
2023/05/17 04:06:34;;;;;;;2.05;1.50;;;;;;;8.56;69.01;97140.41;5095438;28;20051;-80
2023/05/17 04:09:01;;;;;;;2.05;1.10;;;;;;;8.50;68.67;97141.03;5095310;28;20052;-79
2023/05/17 04:11:29;;;;;;;2.83;1.38;;;;;;;8.51;69.62;97141.88;5095475;28;20565;-80
2023/05/17 04:13:56;;;;;;;2.83;1.50;;;;;;;8.51;70.28;97144.47;5095258;28;20485;-80
2023/05/17 04:16:25;;;;;;;3.83;1.30;;;;;;;8.47;68.05;97143.13;5094938;28;20048;-80
2023/05/17 04:18:53;;;;;;;3.80;1.60;;;;;;;8.43;68.42;97142.63;5094934;28;20477;-80
2023/05/17 04:21:21;;;;;;;2.40;1.27;;;;;;;8.35;67.18;97140.78;5095148;28;20044;-80
2023/05/17 04:23:48;;;;;;;2.47;1.75;;;;;;;8.25;66.12;97137.47;5095101;28;20071;-81
2023/05/17 04:26:16;;;;;;;3.15;1.58;;;;;;;8.10;65.42;97150.19;5093766;28;20135;-80
2023/05/17 04:28:44;;;;;;;3.08;1.40;;;;;;;7.99;65.87;97146.06;5094755;28;20044;-79
2023/05/17 04:31:13;;;;;;;4.30;1.50;;;;;;;7.94;65.57;97155.28;5094605;28;20047;-79
2023/05/17 04:33:42;;;;;;;1.80;1.33;;;;;;;7.84;65.48;97156.19;5094692;28;20515;-80
2023/05/17 04:36:10;;;;;;;2.78;1.23;;;;;;;7.76;65.26;97157.88;5095190;28;20048;-80
2023/05/17 04:38:38;;;;;;;4.18;1.13;;;;;;;7.73;67.21;97159.00;5095249;28;20494;-79
2023/05/17 04:41:08;;;;;;;5.20;2.33;;;;;;;7.76;67.08;97163.94;5099323;28;20052;-80
2023/05/17 04:43:36;;;;;;;4.05;1.85;;;;;;;7.76;66.14;97170.88;5085707;28;20052;-81
2023/05/17 04:46:04;;;;;;;4.20;1.70;;;;;;;7.75;65.85;97171.84;5081243;28;20108;-80
2023/05/17 04:48:32;;;;;;;2.60;1.65;;;;;;;7.75;66.53;97174.44;5076147;28;20062;-80
2023/05/17 04:51:03;;;;;;;3.70;1.13;;;;;;;7.81;70.20;97172.06;5079665;28;20453;-80
2023/05/17 04:53:31;;;;;;;3.92;1.88;;;;;;;7.95;71.31;97182.88;5094275;28;20170;-80
2023/05/17 04:55:58;;;;;;;3.13;1.55;;;;;;;8.03;70.58;97183.75;5093517;28;20047;-80
2023/05/17 04:58:26;;;;;;;3.85;1.98;;;;;;;8.07;69.75;97183.44;5076835;28;20101;-79
2023/05/17 05:00:54;;;;;;;3.95;1.67;;;;;;;8.04;68.01;97181.97;5082234;28;20047;-79
2023/05/17 05:03:22;;;;;;;3.03;1.52;;;;;;;7.99;66.72;97184.22;5093692;28;20052;-80
2023/05/17 05:05:50;;;;;;;7.65;2.55;;;;;;;7.97;67.36;97183.56;5093605;28;20044;-81
2023/05/17 05:08:19;;;;;;;6.93;1.63;;;;;;;7.94;66.08;97189.06;5093604;28;20097;-80
2023/05/17 05:10:47;;;;;;;5.80;1.63;;;;;;;7.87;66.13;97194.03;5092779;28;20114;-81
2023/05/17 05:13:14;;;;;;;5.95;1.58;;;;;;;7.81;66.16;97202.44;5075159;28;20102;-81
2023/05/17 05:15:42;;;;;;;6.80;1.95;;;;;;;7.78;66.10;97203.56;5079270;28;20522;-80
2023/05/17 05:18:10;;;;;;;5.85;1.70;;;;;;;7.77;66.84;97201.91;5094610;28;20055;-80
2023/05/17 05:20:37;;;;;;;10.00;2.25;;;;;;;7.79;66.42;97205.16;5092521;28;20078;-80
2023/05/17 05:23:05;;;;;;;5.47;2.05;;;;;;;7.78;66.22;97208.75;5092530;28;20076;-79
2023/05/17 05:25:34;;;;;;;2.58;1.73;;;;;;;7.77;65.95;97222.69;5093618;28;20071;-81
2023/05/17 05:28:02;;;;;;;4.60;1.63;;;;;;;7.79;66.50;97214.75;5093932;28;20047;-80
2023/05/17 05:30:30;;;;;;;8.98;2.10;;;;;;;7.82;66.23;97209.25;5092034;28;20048;-80
2023/05/17 05:32:57;;;;;;;3.67;2.00;;;;;;;7.86;66.40;97217.56;5073356;28;20135;-80
2023/05/17 05:35:28;;;;;;;4.50;1.45;;;;;;;7.94;67.41;97217.63;5087206;28;20078;-80
2023/05/17 05:37:57;;;;;;;3.22;1.70;;;;;;;8.04;69.21;97213.16;5092495;28;20052;-78
2023/05/17 05:40:25;;;;;;;4.80;1.92;;;;;;;8.12;68.51;97221.03;5087208;28;20040;-79
2023/05/17 05:42:54;;;;;;;2.15;1.60;;;;;;;8.19;69.19;97216.84;5072974;28;20052;-77
2023/05/17 05:45:21;;;;;;;2.75;1.67;;;;;;;8.23;67.05;97220.78;5077908;28;20040;-80
2023/05/17 05:47:49;;;;;;;3.95;1.70;;;;;;;8.23;65.95;97218.19;5092843;28;20139;-80
2023/05/17 05:53:14;;;;;;;4.63;1.88;;;;;;;8.32;64.93;97221.66;4718676;23;20097;-81
2023/05/17 05:55:46;;;;;;;6.90;2.00;;;;;;;8.35;65.38;97230.91;4967564;28;20051;-81
2023/05/17 05:58:15;;;;;;;3.30;1.90;;;;;;;8.39;65.23;97227.06;4958129;28;20047;-80
2023/05/17 06:00:43;;;;;;;3.75;1.55;;;;;;;8.44;65.05;97230.06;4958402;28;20501;-81
2023/05/17 06:03:10;;;;;;;5.78;1.95;;;;;;;8.50;65.05;97242.44;4966303;28;20436;-80
2023/05/17 06:05:39;;;;;;;8.85;1.75;;;;;;;8.55;64.61;97239.38;4960764;28;20059;-81
2023/05/17 06:08:07;;;;;;;2.03;1.25;;;;;;;8.59;65.03;97238.94;4962262;28;20043;-81
2023/05/17 06:10:35;;;;;;;3.97;1.80;;;;;;;8.64;66.21;97236.69;4965003;28;20059;-81
2023/05/17 06:13:03;;;;;;;5.60;1.92;;;;;;;8.68;65.17;97244.16;4962558;28;20051;-81
2023/05/17 06:15:32;;;;;;;4.50;1.90;;;;;;;8.70;64.10;97243.03;4964252;28;20062;-81
2023/05/17 06:18:00;;;;;;;5.13;2.20;;;;;;;8.73;64.11;97249.75;4961935;28;20047;-81
2023/05/17 06:20:28;;;;;;;4.90;1.50;;;;;;;8.78;63.80;97247.47;4964613;28;20063;-81
2023/05/17 06:22:56;;;;;;;4.63;1.80;;;;;;;8.81;63.98;97244.56;4964044;28;20047;-81
2023/05/17 06:25:25;;;;;;;3.42;1.88;;;;;;;8.87;65.09;97251.75;4963467;28;20047;-81
2023/05/17 06:27:53;;;;;;;8.48;1.90;;;;;;;8.94;65.44;97252.75;4960610;28;20531;-81
2023/05/17 06:30:21;;;;;;;6.22;2.58;;;;;;;9.03;67.73;97246.63;4961210;29;20051;-81
2023/05/17 06:32:50;;;;;;;5.07;1.92;;;;;;;9.10;65.29;97259.03;4963284;28;20102;-81
2023/05/17 06:35:18;;;;;;;7.80;2.15;;;;;;;9.12;64.34;97244.88;4964230;28;20043;-81
2023/05/17 06:37:48;;;;;;;6.95;1.90;;;;;;;9.17;64.68;97247.03;4965461;28;20106;-79
2023/05/17 06:40:16;;;;;;;4.68;2.15;;;;;;;9.23;64.43;97241.19;4954033;28;20504;-80
2023/05/17 06:42:44;;;;;;;8.55;2.45;;;;;;;9.30;64.13;97251.78;4953648;28;20062;-79
2023/05/17 06:45:11;;;;;;;3.35;1.90;;;;;;;9.36;63.54;97241.56;4954416;28;20043;-79
2023/05/17 06:47:39;;;;;;;6.85;2.08;;;;;;;9.42;63.41;97242.69;4956662;28;20153;-81
2023/05/17 06:50:09;;;;;;;6.75;2.90;;;;;;;9.51;63.28;97248.75;4959057;28;20054;-80
2023/05/17 06:52:37;;;;;;;6.65;1.98;;;;;;;9.59;63.77;97246.16;4960478;28;20082;-81
2023/05/17 06:55:06;;;;;;;6.28;2.35;;;;;;;9.66;62.81;97242.78;4961591;28;20035;-79
2023/05/17 06:57:33;;;;;;;10.65;2.55;;;;;;;9.73;62.92;97245.56;4980056;28;20140;-79
2023/05/17 07:00:01;;;;;;;4.93;2.20;;;;;;;9.80;62.20;97251.75;4979565;28;20035;-81
2023/05/17 07:02:31;;;;;;;3.75;2.55;;;;;;;9.85;62.30;97251.25;4961752;28;20055;-79
2023/05/17 07:05:01;;;;;;;6.55;2.20;;;;;;;9.89;61.68;97245.56;4960213;28;20055;-80
2023/05/17 07:07:30;;;;;;;6.15;2.45;;;;;;;9.95;61.04;97246.72;4957788;28;20062;-80
2023/05/17 07:09:58;;;;;;;5.15;2.50;;;;;;;10.03;62.21;97248.50;4951252;29;20078;-80
2023/05/17 07:12:25;;;;;;;3.08;1.77;;;;;;;10.12;61.81;97257.94;4956554;28;20082;-80
2023/05/17 07:14:53;;;;;;;7.32;2.60;;;;;;;10.19;60.90;97248.53;4957119;28;20113;-79
2023/05/17 07:17:20;;;;;;;5.45;2.70;;;;;;;10.26;60.67;97249.50;4986022;23;20070;-77
2023/05/17 07:19:49;;;;;;;8.02;2.30;;;;;;;10.34;60.47;97253.09;4967541;28;20080;-77
2023/05/17 07:22:17;;;;;;;4.65;2.33;;;;;;;10.43;60.88;97259.94;4968041;28;20055;-77
2023/05/17 07:24:46;;;;;;;4.78;2.47;;;;;;;10.49;59.78;97259.28;4959467;28;20507;-77
2023/05/17 07:27:15;;;;;;;8.45;2.92;;;;;;;10.56;60.81;97254.22;4956374;28;20467;-77
2023/05/17 07:29:46;;;;;;;5.70;2.08;;;;;;;10.62;59.85;97259.59;4970299;28;20125;-78
2023/05/17 07:32:14;;;;;;;5.38;2.20;;;;;;;10.67;59.77;97257.31;4972516;28;20082;-77
2023/05/17 07:34:42;;;;;;;9.00;2.30;;;;;;;10.75;60.02;97266.91;4970731;28;20047;-77
2023/05/17 07:37:10;;;;;;;5.50;2.70;;;;;;;10.82;59.53;97265.28;4972518;28;20058;-77
2023/05/17 07:39:37;;;;;;;3.55;2.38;;;;;;;10.87;58.80;97256.94;4969922;28;20118;-77
2023/05/17 07:42:07;;;;;;;5.25;2.40;;;;;;;10.94;57.96;97260.50;4974161;28;20466;-77
2023/05/17 07:44:35;;;;;;;7.32;2.50;;;;;;;10.98;57.84;97258.38;4973461;28;20051;-77
2023/05/17 07:47:02;;;;;;;6.18;2.35;;;;;;;11.02;57.83;97255.25;4959597;28;20468;-77
2023/05/17 07:49:30;;;;;;;7.03;2.67;;;;;;;11.07;58.14;97266.00;4956040;28;20051;-77
2023/05/17 07:51:58;;;;;;;7.15;2.72;;;;;;;11.13;57.48;97262.72;4969117;28;20047;-78
2023/05/17 07:54:26;;;;;;;3.72;2.40;;;;;;;11.19;57.40;97260.41;4967362;28;20050;-76
2023/05/17 07:56:54;;;;;;;5.93;2.55;;;;;;;11.25;57.75;97259.75;4956931;29;20522;-76
2023/05/17 07:59:24;;;;;;;4.80;2.63;;;;;;;11.36;57.27;97261.16;4961887;28;20051;-78
2023/05/17 08:01:52;;;;;;;4.32;2.38;;;;;;;11.41;56.54;97262.28;4964748;28;20056;-77
2023/05/17 08:04:19;;;;;;;4.80;2.25;;;;;;;11.44;56.45;97259.34;4968911;28;20529;-77
2023/05/17 08:06:48;;;;;;;7.20;2.85;;;;;;;11.50;56.49;97258.66;4970692;28;20054;-78
2023/05/17 08:09:16;;;;;;;8.98;3.00;;;;;;;11.55;56.36;97266.78;4971416;28;20075;-76
2023/05/17 08:11:45;;;;;;;4.95;2.80;;;;;;;11.60;55.73;97258.44;4972944;28;20047;-77
2023/05/17 08:14:14;;;;;;;4.93;2.90;;;;;;;11.62;55.83;97260.88;4961908;28;20047;-77
2023/05/17 08:16:45;;;;;;;4.95;2.33;;;;;;;11.64;55.43;97264.94;4968098;28;20070;-76
2023/05/17 08:19:14;;;;;;;9.05;2.88;;;;;;;11.69;55.94;97267.03;4968874;28;20097;-78
2023/05/17 08:21:44;;;;;;;5.75;2.83;;;;;;;11.74;55.38;97262.09;4971701;28;20078;-77
2023/05/17 08:24:12;;;;;;;5.57;2.83;;;;;;;11.81;56.22;97260.44;4957744;28;20051;-77
2023/05/17 08:26:40;;;;;;;7.72;2.75;;;;;;;11.89;55.99;97265.63;4968947;28;20130;-77
2023/05/17 08:29:08;;;;;;;6.20;3.03;;;;;;;11.98;55.25;97260.34;4964159;28;20075;-76
2023/05/17 08:31:35;;;;;;;6.97;2.70;;;;;;;12.07;54.86;97259.28;4965681;28;20496;-78
2023/05/17 08:34:04;;;;;;;4.32;2.67;;;;;;;12.13;54.12;97264.66;4963568;28;20050;-78
2023/05/17 08:36:32;;;;;;;6.35;2.55;;;;;;;12.18;54.10;97269.38;4968456;28;20042;-77
2023/05/17 08:39:00;;;;;;;4.95;3.00;;;;;;;12.22;53.93;97273.25;4966425;28;20043;-77
2023/05/17 08:41:27;;;;;;;6.07;2.80;;;;;;;12.25;53.34;97272.91;4965266;28;20054;-77
2023/05/17 08:43:58;;;;;;;6.10;2.83;;;;;;;12.28;52.93;97269.94;4973015;28;20057;-77
2023/05/17 08:46:27;;;;;;;7.22;2.92;;;;;;;12.35;52.96;97267.41;4965605;28;20517;-78
2023/05/17 08:48:59;;;;;;;4.15;2.60;;;;;;;12.43;52.43;97274.41;4974245;28;20121;-77
2023/05/17 08:51:28;;;;;;;5.93;3.00;;;;;;;12.50;52.46;97265.66;4971707;28;20046;-77
2023/05/17 08:53:56;;;;;;;9.68;2.60;;;;;;;12.55;52.40;97270.34;4955899;28;20051;-78
2023/05/17 08:56:27;;;;;;;2.85;2.22;;;;;;;12.56;52.25;97274.59;4967141;28;20133;-77
2023/05/17 08:58:56;;;;;;;8.70;2.90;;;;;;;12.57;52.27;97261.34;4972879;28;20078;-77
2023/05/17 09:01:25;;;;;;;7.28;2.58;;;;;;;12.63;52.78;97262.44;4963516;28;20420;-77
2023/05/17 09:03:55;;;;;;;3.63;2.33;;;;;;;12.72;52.58;97269.22;4955658;28;20066;-77
2023/05/17 09:06:24;;;;;;;9.82;2.80;;;;;;;12.81;52.87;97263.91;4957140;28;20500;-78
2023/05/17 09:08:54;;;;;;;9.13;2.65;;;;;;;12.89;52.17;97269.88;4964293;28;20069;-78
2023/05/17 09:11:25;;;;;;;6.57;2.60;;;;;;;12.99;54.00;97274.84;4955706;28;20075;-76
2023/05/17 09:13:53;;;;;;;4.80;2.83;;;;;;;13.07;52.75;97276.56;4959480;28;20074;-76
2023/05/17 09:16:21;;;;;;;5.40;3.05;;;;;;;13.14;52.34;97272.22;4954423;28;20062;-76
2023/05/17 09:18:54;;;;;;;4.18;2.42;;;;;;;13.26;51.67;97280.44;4954566;29;20062;-77
2023/05/17 09:21:22;;;;;;;7.22;2.47;;;;;;;13.31;50.58;97278.09;4955602;28;20058;-75
2023/05/17 09:23:52;;;;;;;4.60;2.38;;;;;;;13.37;50.82;97277.38;4955584;28;20050;-76
2023/05/17 09:26:40;;;;;;;5.50;2.47;;;;;;;13.48;51.00;97271.66;4962429;28;20073;-77
2023/05/17 09:29:10;;;;;;;6.90;2.60;;;;;;;13.53;49.61;97279.78;4978689;28;20290;-76
2023/05/17 09:31:38;;;;;;;6.45;2.33;;;;;;;13.55;48.91;97272.56;4971245;28;20130;-75
2023/05/17 09:34:06;;;;;;;7.07;2.78;;;;;;;13.56;49.36;97276.81;4964602;28;20046;-77
2023/05/17 09:36:36;;;;;;;4.13;1.95;;;;;;;13.62;49.31;97282.31;4973894;28;20070;-79
2023/05/17 09:39:10;;;;;;;5.40;2.40;;;;;;;13.67;48.82;97286.00;4968087;28;20130;-78
2023/05/17 09:41:42;;;;;;;4.03;2.42;;;;;;;13.73;48.47;97285.28;4955778;28;20047;-76
2023/05/17 09:44:11;;;;;;;3.67;2.08;;;;;;;13.79;49.34;97296.81;4954922;28;20404;-77
2023/05/17 09:46:41;;;;;;;7.47;2.50;;;;;;;13.83;47.78;97294.66;4965600;28;20322;-77
2023/05/17 09:49:09;;;;;;;5.93;2.83;;;;;;;13.84;48.28;97297.09;4966570;28;20105;-76
2023/05/17 09:51:41;;;;;;;5.88;2.53;;;;;;;13.89;47.97;97292.09;4963316;28;20051;-78
2023/05/17 09:54:11;;;;;;;4.05;2.55;;;;;;;13.95;48.62;97293.16;4961158;28;20081;-77
2023/05/17 09:56:39;;;;;;;3.65;2.08;;;;;;;14.02;50.57;97292.25;4956196;28;20047;-77
2023/05/17 09:59:11;;;;;;;5.15;2.38;;;;;;;14.11;52.51;97289.50;4954136;29;20047;-77
2023/05/17 10:01:41;;;;;;;5.55;2.50;;;;;;;14.15;48.65;97296.00;4966165;28;20054;-77
2023/05/17 10:04:09;;;;;;;4.00;2.30;;;;;;;14.15;47.47;97290.75;4971832;28;20062;-77
2023/05/17 10:06:39;;;;;;;3.88;2.28;;;;;;;14.16;47.76;97295.00;4958009;28;20073;-78
2023/05/17 10:09:20;;;;;;;5.60;2.33;;;;;;;14.16;47.29;97295.00;4968413;28;20061;-78
2023/05/17 10:11:52;;;;;;;7.65;2.47;;;;;;;14.16;47.95;97297.63;4975133;28;20097;-77
2023/05/17 10:14:25;;;;;;;8.90;2.60;;;;;;;14.21;46.68;97295.22;4963650;28;20055;-78
2023/05/17 10:16:53;;;;;;;4.53;2.40;;;;;;;14.22;46.51;97296.88;4954953;28;20083;-77
2023/05/17 10:19:22;;;;;;;4.60;2.63;;;;;;;14.22;47.94;97297.69;5250351;23;20021;-79
2023/05/17 10:21:53;;;;;;;4.38;2.67;;;;;;;14.27;46.86;97299.75;4972479;28;20474;-79
2023/05/17 10:24:24;;;;;;;7.30;2.92;;;;;;;14.34;47.19;97290.13;4980997;28;20085;-80
2023/05/17 10:26:53;;;;;;;5.03;2.63;;;;;;;14.41;46.70;97298.06;4977927;28;20050;-79
2023/05/17 10:29:22;;;;;;;4.38;2.70;;;;;;;14.54;46.70;97299.97;4973375;28;20117;-80
2023/05/17 10:32:06;;;;;;;4.47;2.58;;;;;;;14.58;45.06;97291.56;4977779;28;20047;-79
2023/05/17 10:34:35;;;;;;;6.53;3.13;;;;;;;14.62;45.40;97303.28;4978179;28;20117;-80
2023/05/17 10:39:45;;;;;;;4.15;2.67;;;;;;;14.79;46.14;97293.34;4937975;29;20122;-78
2023/05/17 10:42:17;;;;;;;5.47;2.92;;;;;;;14.90;45.90;97293.81;4957831;28;20476;-79
2023/05/17 10:44:45;;;;;;;4.97;2.83;;;;;;;15.03;46.79;97291.28;4949991;28;20051;-79
2023/05/17 10:47:15;;;;;;;6.72;3.05;;;;;;;15.12;44.53;97295.38;4955323;28;20058;-78
2023/05/17 10:49:46;;;;;;;5.55;2.92;;;;;;;15.14;44.26;97297.81;4957826;29;20578;-79
2023/05/17 10:52:17;;;;;;;6.10;3.30;;;;;;;15.14;43.79;97295.97;4957283;28;20563;-78
2023/05/17 10:54:49;;;;;;;4.68;2.90;;;;;;;15.17;44.14;97300.84;4957419;29;20055;-79
2023/05/17 10:57:22;;;;;;;4.95;2.50;;;;;;;15.21;43.11;97301.28;4957983;28;20051;-80
2023/05/17 10:59:57;;;;;;;5.60;3.10;;;;;;;15.25;43.25;97297.25;4954839;29;20474;-79
2023/05/17 11:02:27;;;;;;;5.38;3.13;;;;;;;15.27;43.47;97297.88;4957419;29;20070;-79
2023/05/17 11:04:56;;;;;;;5.55;3.10;;;;;;;15.28;43.84;97285.53;4958556;29;20790;-79
2023/05/17 11:07:27;;;;;;;5.95;3.17;;;;;;;15.29;43.50;97290.59;4958209;28;20048;-79
2023/05/17 11:10:05;;;;;;;4.20;2.72;;;;;;;15.29;43.81;97287.97;4958282;29;20106;-80
2023/05/17 11:12:35;;;;;;;5.68;2.83;;;;;;;15.29;43.40;97287.19;4965686;29;20388;-79
2023/05/17 11:15:09;;;;;;;5.20;3.05;;;;;;;15.32;45.36;97284.16;4947486;29;20051;-80
2023/05/17 11:17:48;;;;;;;4.05;2.88;;;;;;;15.38;42.46;97288.63;4976643;28;20063;-80
2023/05/17 11:20:35;;;;;;;5.90;2.90;;;;;;;15.41;42.63;97285.59;4965354;29;20051;-80
2023/05/17 11:23:05;;;;;;;5.18;3.03;;;;;;;15.42;43.33;97276.72;4959047;29;20506;-80
2023/05/17 11:25:35;;;;;;;5.45;2.75;;;;;;;15.46;43.42;97277.97;4959928;28;20058;-79
2023/05/17 11:28:08;;;;;;;5.90;3.25;;;;;;;15.50;43.32;97273.91;4958835;28;20055;-80
2023/05/17 11:30:46;;;;;;;10.38;3.67;;;;;;;15.59;43.80;97275.38;4957875;28;20051;-79
2023/05/17 11:33:23;;;;;;;4.93;3.30;;;;;;;15.62;43.35;97272.34;4958199;29;20075;-80
2023/05/17 11:36:21;;;;;;;6.38;3.80;;;;;;;15.61;42.86;97275.16;4957389;28;20062;-80
2023/05/17 11:38:50;;;;;;;6.20;2.92;;;;;;;15.59;42.79;97278.00;4957274;28;20066;-80
2023/05/17 11:42:22;;;;;;;7.18;2.63;;;;;;;15.62;42.27;97269.72;4943140;29;20083;-80
2023/05/17 11:45:10;;;;;;;5.53;3.80;;;;;;;15.64;43.41;97270.31;4957670;28;20058;-80
2023/05/17 11:47:47;;;;;;;4.78;2.90;;;;;;;15.70;43.24;97262.66;4918891;29;20056;-79
2023/05/17 11:50:16;;;;;;;5.72;3.30;;;;;;;15.72;42.20;97271.19;4941568;29;20067;-79
2023/05/17 11:52:43;;;;;;;9.02;3.20;;;;;;;15.66;41.65;97259.63;4956351;29;20499;-79